Details From GCRR - Lanzarote
To EICK - Cork
Flight Number -
Tags Generated
Created
Modified
Stats Distance 1,395 nm / 2,583 km
Max Altitude 0 ft / 0 m
Waypoints 3
Social Downloads 2
Likes 0
Share VATSIM

Download

Looking for another format? Having issues loading an existing format? Contact us
Advertisement - Login to hide

Notes

Generated

Route

GCRR CRK EICK

ID Type Via Altitude Latitude Longitude Leg Dist Tot Dist Heading (true) Name
O GCRR APT - 0 ft / 0 m 28.93584˚ -13.61080˚ - 0 nm - -
CRK VOR - 0 ft / 0 m 51.84061˚ -8.49427˚ 1394 nm 1394 nm 8° / 11° CORK VOR-DME
O EICK APT - 0 ft / 0 m 51.84143˚ -8.49570˚ 0 nm 1394 nm 313° / 313° -

Altitude Profile

Advertisement - Login to hide

Weather


0- 5 10 15 20 25 30 35+ Temperature / ° C

Clouds and Precipitation
Forecast for 2018-05-22 18:00 UTC. Updated 5 hours ago

Ground ~20,000 ft ~40,000 ft Winds

GCRR

Details ICAO GCRR (ACE)
Name Lanzarote
Region Canary Islands
Timezone Atlantic/Canary (UTC+1.0)
Stats Elevation 0 ft / 0 m (AMSL)
Location 28.945466° -13.605223°
Runways 1
Magnetic Variation 3.926° W

METAR

GCRR 222130Z 15003KT 120V180 9999 -RA BKN025 OVC035 20/17 Q1017

Decode

TAF

TAF GCRR 222000Z 2221/2321 34008KT 9999 BKN025 TX23/2314Z TN14/2305Z TEMPO 2310/2319 14010KT PROB30 TEMPO 2312/2316 24012KT PROB30 TEMPO 2312/2314 DZ

Decode

Departure Runways

ID Width Length Bearing (true) Bearing (mag) Surface Threshold Offset Overrun Length
03 148 ft / 45 m 7,893 ft / 2,406 m 26.90° 30.83° Asphalt 197 ft / 60 m 197 ft / 60 m
21 148 ft / 45 m 7,893 ft / 2,406 m 206.91° 210.84° Asphalt 197 ft / 60 m 197 ft / 60 m

EICK

Details ICAO EICK (ORK)
Name Cork
Region Ireland
Timezone Europe/Dublin (UTC+1.0)
Stats Elevation 502 ft / 153 m (AMSL)
Location 51.842605° -8.489056°
Runways 2
Magnetic Variation 3.541° W

METAR

EICK 222130Z 34007KT CAVOK 14/08 Q1023 NOSIG

Decode

TAF

TAF EICK 221700Z 2218/2318 34005KT 9999 FEW035 PROB30 TEMPO 2303/2306 5000 BR BECMG 2309/2312 11010KT

Decode

Destination Runways

ID Width Length Bearing (true) Bearing (mag) Surface Threshold Offset Overrun Length
07 148 ft / 45 m 4,281 ft / 1,305 m 62.55° 66.09° Concrete 0 ft / 0 m 0 ft / 0 m
17 148 ft / 45 m 6,992 ft / 2,131 m 159.93° 163.47° Asphalt 0 ft / 0 m 115 ft / 35 m
25 148 ft / 45 m 4,281 ft / 1,305 m 242.57° 246.11° Concrete 0 ft / 0 m 39 ft / 12 m
35 148 ft / 45 m 6,992 ft / 2,131 m 339.94° 343.48° Asphalt 0 ft / 0 m 0 ft / 0 m

Approach Navaids

Runway Type Ident Frequency Range Bearing (true) Bearing (mag) Slope Elevation
17 Localiser ICS 109.90 MHz 18 nm / 33 km 160.21° 163.75° - 502 ft / 153 m (AMSL)
17 Glidescope ICS 109.90 MHz 10 nm / 19 km 159.93° 163.47° 3.00° 502 ft / 153 m (AMSL)
17 DME ICS 109.90 MHz 18 nm / 33 km - - - 490 ft / 149 m (AMSL)
35 Localiser ICN 109.15 MHz 18 nm / 33 km 339.65° 343.19° - 490 ft / 149 m (AMSL)
35 Glidescope ICN 109.15 MHz 10 nm / 19 km 339.93° 343.47° 3.00° 502 ft / 153 m (AMSL)
35 DME ICN 109.15 MHz 18 nm / 33 km - - - 490 ft / 149 m (AMSL)

Popular Alternatives